Time;durP1;ratioP1;P1;durP2;ratioP2;P2;SDS_P1;SDS_P2;PMS_P1;PMS_P2;Temp;Humidity;BMP_temperature;BMP_pressure;BME280_temperature;BME280_humidity;BME280_pressure;Samples;Min_cycle;Max_cycle;Signal;HPM_P1;HPM_P2
2021/12/27 00:02:10;;;;;;;19.00;13.90;;;;;;;2.78;100.00;100155.69;4999174;28;20041;-49
2021/12/27 00:04:38;;;;;;;15.90;12.25;;;;;;;2.80;100.00;100158.16;4991946;28;20137;-47
2021/12/27 00:07:05;;;;;;;18.00;13.13;;;;;;;2.80;100.00;100155.47;4994280;28;20042;-49
2021/12/27 00:09:33;;;;;;;16.40;12.43;;;;;;;2.82;100.00;100157.94;4992950;28;20050;-50
2021/12/27 00:12:01;;;;;;;16.35;12.55;;;;;;;2.83;100.00;100154.19;4992432;28;20046;-51
2021/12/27 00:14:28;;;;;;;18.30;13.35;;;;;;;2.81;100.00;100151.72;4993447;28;20057;-50
2021/12/27 00:16:56;;;;;;;18.40;14.02;;;;;;;2.82;100.00;100152.56;4994273;28;20501;-49
2021/12/27 00:19:24;;;;;;;18.52;12.75;;;;;;;2.84;100.00;100151.25;4991731;28;20489;-49
2021/12/27 00:21:51;;;;;;;19.48;14.07;;;;;;;2.88;100.00;100152.41;4993377;28;20046;-49
2021/12/27 00:24:19;;;;;;;16.48;12.82;;;;;;;2.90;100.00;100144.94;4991696;28;20054;-49
2021/12/27 00:26:48;;;;;;;18.85;13.93;;;;;;;2.93;100.00;100144.44;5001517;28;20045;-45
2021/12/27 00:29:15;;;;;;;19.17;14.10;;;;;;;2.95;100.00;100136.97;5028155;28;20480;-49
2021/12/27 00:31:43;;;;;;;17.52;13.40;;;;;;;2.98;100.00;100139.22;5002658;28;20038;-50
2021/12/27 00:34:11;;;;;;;18.73;13.52;;;;;;;2.99;100.00;100146.22;4992996;28;20077;-50
2021/12/27 00:36:39;;;;;;;15.80;12.65;;;;;;;3.00;100.00;100133.56;4996265;28;20054;-51
2021/12/27 00:39:07;;;;;;;16.58;12.70;;;;;;;2.98;100.00;100131.13;5012419;28;20048;-51
2021/12/27 00:41:34;;;;;;;16.58;12.77;;;;;;;2.98;100.00;100131.13;5012365;28;20049;-48
2021/12/27 00:44:02;;;;;;;16.13;12.23;;;;;;;2.98;100.00;100131.13;4997743;28;20068;-48
2021/12/27 00:46:30;;;;;;;16.38;12.63;;;;;;;2.99;100.00;100129.25;4997163;28;20527;-49
2021/12/27 00:48:57;;;;;;;16.63;12.35;;;;;;;3.01;100.00;100134.38;4992563;28;20049;-47
2021/12/27 00:51:25;;;;;;;15.30;12.63;;;;;;;3.02;100.00;100127.97;4993064;28;20050;-50
2021/12/27 00:53:53;;;;;;;15.13;11.95;;;;;;;3.03;100.00;100126.91;4991580;28;20054;-46
2021/12/27 00:56:20;;;;;;;15.88;11.35;;;;;;;3.03;100.00;100121.53;4994042;28;20046;-50
2021/12/27 00:58:48;;;;;;;15.35;12.23;;;;;;;3.04;100.00;100117.78;4992973;28;20049;-50
2021/12/27 01:01:15;;;;;;;15.77;11.90;;;;;;;3.04;100.00;100117.78;5000937;28;20054;-51
2021/12/27 01:03:43;;;;;;;15.75;12.05;;;;;;;3.04;100.00;100115.91;5012331;28;20042;-50
2021/12/27 01:06:11;;;;;;;13.95;10.85;;;;;;;3.05;100.00;100116.72;5004768;28;20497;-52
2021/12/27 01:08:38;;;;;;;16.05;10.70;;;;;;;3.05;100.00;100108.66;4991899;28;20064;-51
2021/12/27 01:11:27;;;;;;;16.02;11.30;;;;;;;3.05;100.00;100097.88;4991354;28;20047;-49
2021/12/27 01:14:41;;;;;;;13.63;10.27;;;;;;;3.04;100.00;100104.34;4992871;28;20050;-52
2021/12/27 01:16:50;;;;;;;14.40;11.45;;;;;;;3.05;100.00;100093.31;4993488;28;20049;-50
2021/12/27 01:19:18;;;;;;;15.15;10.32;;;;;;;3.08;100.00;100097.41;4992421;28;20489;-49
2021/12/27 01:21:45;;;;;;;14.13;10.57;;;;;;;3.07;100.00;100101.97;4993334;28;20042;-49
2021/12/27 01:24:13;;;;;;;13.70;10.27;;;;;;;3.08;100.00;100102.78;4996072;28;20053;-49
2021/12/27 01:26:41;;;;;;;13.77;10.50;;;;;;;3.08;100.00;100100.09;4997215;28;20054;-50
2021/12/27 01:29:09;;;;;;;14.05;10.35;;;;;;;3.12;100.00;100109.34;4996144;28;20043;-50
2021/12/27 01:31:37;;;;;;;14.45;10.93;;;;;;;3.15;100.00;100098.09;4994942;28;20043;-50
2021/12/27 01:34:05;;;;;;;14.77;10.20;;;;;;;3.15;100.00;100087.34;4995726;28;20069;-50
2021/12/27 01:36:33;;;;;;;13.93;10.07;;;;;;;3.16;100.00;100099.75;4997261;28;20042;-46
2021/12/27 01:39:02;;;;;;;13.70;10.52;;;;;;;3.15;100.00;100087.34;4996027;28;20042;-48
2021/12/27 01:41:30;;;;;;;13.25;10.18;;;;;;;3.13;100.00;100100.22;4995750;28;20056;-49
2021/12/27 01:43:58;;;;;;;13.48;9.18;;;;;;;3.16;100.00;100095.19;5014308;28;20033;-49
2021/12/27 01:46:28;;;;;;;14.48;10.70;;;;;;;3.20;100.00;100098.22;5013615;28;20485;-48
2021/12/27 01:48:57;;;;;;;14.38;10.05;;;;;;;3.22;100.00;100093.41;5015385;28;20050;-49
2021/12/27 01:51:28;;;;;;;12.70;9.48;;;;;;;3.19;100.00;100089.31;5015264;28;20080;-48
2021/12/27 01:53:57;;;;;;;14.40;10.02;;;;;;;3.19;100.00;100083.94;5014973;28;20053;-48
2021/12/27 01:56:25;;;;;;;13.02;9.57;;;;;;;3.21;100.00;100083.72;5015203;28;20096;-49
2021/12/27 01:58:57;;;;;;;14.20;10.38;;;;;;;3.20;100.00;100085.59;5013205;28;20527;-50
2021/12/27 02:01:26;;;;;;;16.48;10.27;;;;;;;3.23;100.00;100083.47;5014748;28;20069;-50
2021/12/27 02:03:55;;;;;;;14.90;9.63;;;;;;;3.23;100.00;100086.97;5014965;28;20092;-49
2021/12/27 02:06:25;;;;;;;13.52;9.82;;;;;;;3.23;100.00;100081.59;5015030;28;20136;-45
2021/12/27 02:08:53;;;;;;;13.63;9.70;;;;;;;3.23;100.00;100078.09;5013499;28;20062;-50
2021/12/27 02:11:21;;;;;;;14.77;10.05;;;;;;;3.24;100.00;100080.53;5015133;28;20053;-51
2021/12/27 02:13:49;;;;;;;13.20;9.25;;;;;;;3.25;100.00;100079.50;4996130;28;20042;-49
2021/12/27 02:16:20;;;;;;;13.45;9.57;;;;;;;3.27;100.00;100079.22;4995347;28;20054;-49
2021/12/27 02:18:49;;;;;;;13.20;10.20;;;;;;;3.28;100.00;100081.69;5012502;28;20400;-50
2021/12/27 02:21:17;;;;;;;13.50;9.50;;;;;;;3.28;100.00;100079.00;5015282;28;20077;-49
2021/12/27 02:23:45;;;;;;;14.05;10.23;;;;;;;3.28;100.00;100078.19;5014755;28;20128;-52
2021/12/27 02:26:13;;;;;;;13.13;9.88;;;;;;;3.27;100.00;100080.06;5014761;28;20053;-49
2021/12/27 02:28:41;;;;;;;13.63;10.32;;;;;;;3.26;100.00;100083.81;5012997;28;20042;-48
2021/12/27 02:31:09;;;;;;;13.27;9.00;;;;;;;3.26;100.00;100078.44;5014612;28;20037;-45
2021/12/27 02:33:38;;;;;;;12.85;9.55;;;;;;;3.29;100.00;100077.94;5009968;28;20145;-49
2021/12/27 02:36:07;;;;;;;13.23;9.98;;;;;;;3.33;100.00;100079.09;4995810;28;20692;-48
2021/12/27 02:38:37;;;;;;;14.25;10.20;;;;;;;3.35;100.00;100068.91;4995661;28;20516;-49
2021/12/27 02:41:07;;;;;;;13.45;9.45;;;;;;;3.36;100.00;100062.47;4995634;28;20563;-50
2021/12/27 02:43:35;;;;;;;13.45;10.23;;;;;;;3.36;100.00;100058.97;4995723;28;20481;-49
2021/12/27 02:46:06;;;;;;;13.63;9.82;;;;;;;3.36;100.00;100057.09;4994707;28;20062;-48
2021/12/27 02:48:38;;;;;;;14.32;9.68;;;;;;;3.37;100.00;100056.03;4994296;28;20129;-48
2021/12/27 02:51:06;;;;;;;14.20;9.40;;;;;;;3.39;100.00;100055.78;5013011;28;20052;-49
2021/12/27 02:53:34;;;;;;;14.00;9.77;;;;;;;3.40;100.00;100057.44;5014146;28;20037;-45
2021/12/27 02:56:04;;;;;;;13.55;9.82;;;;;;;3.41;100.00;100054.47;5014301;28;20050;-47
2021/12/27 02:58:32;;;;;;;13.80;10.13;;;;;;;3.45;100.00;100062.09;5008066;28;20057;-47
2021/12/27 03:01:18;;;;;;;14.25;10.15;;;;;;;3.48;100.00;100053.53;5003738;28;20463;-46
2021/12/27 03:03:45;;;;;;;;;;;;;;;3.50;100.00;100052.25;5014202;28;20062;-46
2021/12/27 03:06:13;;;;;;;14.10;9.68;;;;;;;3.53;100.00;100050.94;5012361;28;20239;-48
2021/12/27 03:08:41;;;;;;;13.10;9.98;;;;;;;3.52;100.00;100050.13;4995545;28;20049;-47
2021/12/27 03:11:12;;;;;;;13.68;9.93;;;;;;;3.52;100.00;100050.13;5013995;28;20515;-48
2021/12/27 03:13:45;;;;;;;12.68;9.30;;;;;;;3.52;100.00;100050.13;5014142;28;20393;-50
2021/12/27 03:16:15;;;;;;;12.95;10.25;;;;;;;3.54;100.00;100049.91;5013967;28;20048;-50
2021/12/27 03:18:48;;;;;;;13.40;10.40;;;;;;;3.54;100.00;100042.63;5011846;28;20052;-49
2021/12/27 03:21:16;;;;;;;14.77;10.63;;;;;;;3.55;100.00;100043.44;5013525;28;20044;-46
2021/12/27 03:23:45;;;;;;;15.57;10.52;;;;;;;3.55;100.00;100041.56;5013316;28;20038;-46
2021/12/27 03:26:12;;;;;;;12.73;9.52;;;;;;;3.55;100.00;100038.06;5013550;28;20038;-48
2021/12/27 03:28:41;;;;;;;13.30;9.45;;;;;;;3.56;100.00;100035.13;5012207;28;20038;-49
2021/12/27 03:31:10;;;;;;;13.57;10.40;;;;;;;3.55;100.00;100038.88;5012326;28;20057;-50
2021/12/27 03:33:38;;;;;;;14.18;10.43;;;;;;;3.55;100.00;100038.06;5013517;28;20378;-53
2021/12/27 03:36:08;;;;;;;16.15;10.30;;;;;;;3.55;100.00;100032.66;5016742;28;20044;-49
2021/12/27 03:38:42;;;;;;;13.30;10.15;;;;;;;3.56;100.00;100045.91;4997083;28;20042;-55
2021/12/27 03:41:16;;;;;;;13.27;9.75;;;;;;;3.58;100.00;100042.94;5003464;28;20050;-55
2021/12/27 03:43:43;;;;;;;13.43;9.63;;;;;;;3.62;100.00;100039.53;5017019;28;20049;-51
2021/12/27 03:46:11;;;;;;;13.70;9.50;;;;;;;3.66;100.00;100039.88;5012896;28;20042;-51
2021/12/27 03:48:39;;;;;;;12.88;9.50;;;;;;;3.68;100.00;100029.69;5013941;28;20042;-45
2021/12/27 03:51:07;;;;;;;14.10;10.00;;;;;;;3.71;100.00;100036.47;5013247;28;20046;-49
2021/12/27 03:53:35;;;;;;;13.82;9.85;;;;;;;3.71;100.00;100025.69;5028427;28;20121;-49
2021/12/27 03:56:03;;;;;;;14.20;9.88;;;;;;;3.69;100.00;100023.22;5012978;28;20050;-44
2021/12/27 03:58:44;;;;;;;16.10;10.35;;;;;;;3.71;100.00;100015.72;5011413;28;20046;-49
2021/12/27 04:01:16;;;;;;;13.40;10.05;;;;;;;3.72;100.00;100017.34;5013087;28;20483;-50
2021/12/27 04:03:48;;;;;;;13.93;9.77;;;;;;;3.72;100.00;100005.75;5012745;28;20133;-48
2021/12/27 04:06:18;;;;;;;13.45;10.27;;;;;;;3.72;100.00;100009.28;5011372;28;20061;-49
2021/12/27 04:08:46;;;;;;;13.55;9.75;;;;;;;3.73;100.00;100000.16;5004450;28;20466;-50
2021/12/27 04:11:14;;;;;;;11.60;8.63;;;;;;;3.74;100.00;99991.00;4993450;28;20034;-48
2021/12/27 04:13:43;;;;;;;14.32;10.40;;;;;;;3.76;100.00;99998.84;4992097;28;20055;-47
2021/12/27 04:16:11;;;;;;;14.18;9.82;;;;;;;3.75;100.00;99998.03;4997684;28;20499;-49
2021/12/27 04:18:39;;;;;;;12.93;9.65;;;;;;;3.77;100.00;99998.56;5010875;28;20053;-48
2021/12/27 04:21:06;;;;;;;13.93;10.48;;;;;;;3.80;100.00;99998.13;5012969;28;20049;-48
2021/12/27 04:23:34;;;;;;;16.00;10.23;;;;;;;3.80;100.00;99995.41;5012925;28;20104;-48
2021/12/27 04:26:02;;;;;;;12.98;9.65;;;;;;;3.81;100.00;99991.66;5011550;28;20374;-48
2021/12/27 04:28:29;;;;;;;12.45;9.85;;;;;;;3.82;100.00;99987.91;5011240;28;20041;-49
2021/12/27 04:30:57;;;;;;;13.50;9.73;;;;;;;3.81;100.00;99988.97;5013019;28;20053;-45
2021/12/27 04:33:25;;;;;;;13.52;9.55;;;;;;;3.82;100.00;99984.38;5012712;28;20100;-49
2021/12/27 04:35:52;;;;;;;12.45;9.48;;;;;;;3.82;100.00;99979.81;5012859;28;20396;-49
2021/12/27 04:38:20;;;;;;;13.45;9.55;;;;;;;3.83;100.00;99981.44;4995096;28;20046;-48
2021/12/27 04:40:50;;;;;;;12.32;8.73;;;;;;;3.86;100.00;99973.94;4993240;28;20061;-45
2021/12/27 04:43:19;;;;;;;11.55;9.00;;;;;;;3.89;100.00;99962.66;4992882;28;20489;-48
2021/12/27 04:45:49;;;;;;;11.95;9.07;;;;;;;3.91;100.00;99976.72;4993387;28;20053;-48
2021/12/27 04:48:18;;;;;;;12.70;8.98;;;;;;;3.94;100.00;99970.81;4993087;28;20043;-44
2021/12/27 04:50:45;;;;;;;12.57;8.85;;;;;;;3.93;100.00;99964.63;4993856;28;20511;-48
2021/12/27 04:53:13;;;;;;;11.90;8.73;;;;;;;3.95;100.00;99973.28;4992630;28;20073;-45
2021/12/27 04:55:44;;;;;;;11.45;8.45;;;;;;;3.96;100.00;99966.81;4993358;28;20038;-48
2021/12/27 04:58:16;;;;;;;10.75;8.05;;;;;;;3.94;100.00;99970.81;5015442;28;20050;-46
2021/12/27 05:00:46;;;;;;;12.88;8.30;;;;;;;3.94;100.00;99965.44;5014708;28;20049;-50
2021/12/27 05:03:13;;;;;;;11.70;8.95;;;;;;;3.93;100.00;99958.44;5016238;28;20140;-45
2021/12/27 05:05:44;;;;;;;13.85;9.00;;;;;;;3.93;100.00;99956.53;5016120;28;20463;-50
2021/12/27 05:08:12;;;;;;;11.98;8.52;;;;;;;3.93;100.00;99958.44;4997223;28;20065;-49
2021/12/27 05:10:44;;;;;;;11.73;8.70;;;;;;;3.92;100.00;99963.00;4996266;28;20560;-50
2021/12/27 05:13:12;;;;;;;15.18;8.70;;;;;;;3.92;100.00;99956.78;4996713;28;20101;-52
2021/12/27 05:15:40;;;;;;;13.00;9.00;;;;;;;3.93;100.00;99958.44;4999349;28;20065;-51
2021/12/27 05:18:07;;;;;;;12.55;8.98;;;;;;;3.93;100.00;99961.13;5016412;28;20412;-48
2021/12/27 05:20:35;;;;;;;12.65;8.75;;;;;;;3.95;100.00;99961.69;5013993;28;20049;-45
2021/12/27 05:23:03;;;;;;;12.60;8.27;;;;;;;3.96;100.00;99952.53;5015637;28;20045;-49
2021/12/27 05:25:30;;;;;;;10.95;8.50;;;;;;;3.97;100.00;99951.47;5015736;28;20042;-48
2021/12/27 05:27:58;;;;;;;11.05;8.38;;;;;;;3.99;100.00;99941.25;5015919;28;20046;-47
2021/12/27 05:30:26;;;;;;;12.23;8.10;;;;;;;3.98;100.00;99945.84;5014226;28;20038;-45
2021/12/27 05:32:53;;;;;;;11.25;7.80;;;;;;;3.98;100.00;99937.75;5015551;28;20045;-48
2021/12/27 05:35:21;;;;;;;11.77;7.95;;;;;;;4.00;100.00;99942.91;5013020;28;20045;-48
2021/12/27 05:37:48;;;;;;;11.32;8.32;;;;;;;4.00;100.00;99945.59;5009520;28;20053;-49
2021/12/27 05:40:19;;;;;;;11.20;7.78;;;;;;;4.01;100.00;99942.66;5015442;28;20409;-47
2021/12/27 05:42:46;;;;;;;10.82;7.85;;;;;;;4.02;100.00;99936.22;5014112;28;20046;-47
2021/12/27 05:45:14;;;;;;;12.02;8.27;;;;;;;4.02;100.00;99930.81;5015647;28;20069;-52
2021/12/27 05:47:43;;;;;;;11.65;7.82;;;;;;;4.02;100.00;99930.00;5015658;28;20049;-50
2021/12/27 05:50:12;;;;;;;10.40;7.40;;;;;;;4.04;100.00;99935.94;5014992;28;20038;-50
2021/12/27 05:52:40;;;;;;;12.60;8.48;;;;;;;4.04;100.00;99928.69;5002972;28;20042;-48
2021/12/27 05:55:08;;;;;;;11.43;7.95;;;;;;;4.08;100.00;99934.41;4995541;28;20046;-49
2021/12/27 05:57:37;;;;;;;9.90;7.43;;;;;;;4.12;100.00;99940.94;4995859;28;20053;-50
2021/12/27 06:00:08;;;;;;;10.27;7.45;;;;;;;4.15;100.00;99937.72;4995764;28;20053;-46
2021/12/27 06:02:43;;;;;;;11.25;7.85;;;;;;;4.16;100.00;99939.38;5014194;28;20481;-50
2021/12/27 06:05:11;;;;;;;13.70;8.20;;;;;;;4.15;100.00;99945.00;5014905;28;20046;-50
2021/12/27 06:07:39;;;;;;;11.80;8.07;;;;;;;4.16;100.00;99936.69;5002341;28;20417;-49
2021/12/27 06:10:07;;;;;;;11.23;8.27;;;;;;;4.17;100.00;99935.63;4994780;28;20062;-53
2021/12/27 06:12:35;;;;;;;10.70;7.18;;;;;;;4.16;100.00;99942.09;4996637;28;20049;-46
2021/12/27 06:15:04;;;;;;;11.75;7.97;;;;;;;4.17;100.00;99938.31;5014016;28;20121;-49
2021/12/27 06:17:33;;;;;;;12.00;8.25;;;;;;;4.17;100.00;99949.09;5014704;28;20499;-50
2021/12/27 06:20:02;;;;;;;10.50;7.63;;;;;;;4.18;100.00;99949.91;5002220;28;20042;-52
2021/12/27 06:22:29;;;;;;;11.25;7.55;;;;;;;4.18;100.00;99941.81;4995676;28;20137;-49
2021/12/27 06:25:03;;;;;;;12.27;7.85;;;;;;;4.18;100.00;99941.81;4995030;28;20042;-49
2021/12/27 06:27:31;;;;;;;10.23;7.30;;;;;;;4.19;100.00;99941.56;4995003;28;20054;-52
2021/12/27 06:30:06;;;;;;;11.43;7.25;;;;;;;4.20;100.00;99943.19;4995161;28;20061;-50
2021/12/27 06:32:35;;;;;;;12.43;7.25;;;;;;;4.21;100.00;99942.16;5009949;28;20065;-51
2021/12/27 06:35:05;;;;;;;10.27;7.90;;;;;;;4.20;100.00;99937.00;5012252;28;20046;-51
2021/12/27 06:37:32;;;;;;;10.95;7.45;;;;;;;4.19;100.00;99941.56;4996217;28;20046;-49
2021/12/27 06:40:00;;;;;;;13.00;7.78;;;;;;;4.18;100.00;99945.31;4995045;28;20470;-50
2021/12/27 06:42:29;;;;;;;11.35;8.27;;;;;;;4.18;100.00;99947.22;5002486;28;20147;-53
2021/12/27 06:44:56;;;;;;;11.20;8.00;;;;;;;4.17;100.00;99938.31;5014422;28;20362;-50
2021/12/27 06:47:26;;;;;;;10.48;8.00;;;;;;;4.19;100.00;99935.38;5014061;28;20046;-48
2021/12/27 06:49:53;;;;;;;9.73;7.20;;;;;;;4.19;100.00;99936.19;5014010;28;20053;-51
2021/12/27 06:52:21;;;;;;;11.23;7.80;;;;;;;4.20;100.00;99932.41;5012492;28;20039;-49
2021/12/27 06:54:49;;;;;;;11.07;7.88;;;;;;;4.22;100.00;99930.28;5011968;28;20034;-51
2021/12/27 06:57:18;;;;;;;11.45;8.15;;;;;;;4.24;100.00;99928.16;5013991;28;20080;-48
2021/12/27 06:59:48;;;;;;;12.75;7.20;;;;;;;4.26;100.00;99923.34;5014331;28;20046;-49
2021/12/27 07:02:17;;;;;;;12.25;7.72;;;;;;;4.31;100.00;99924.50;5014343;28;20168;-48
2021/12/27 07:04:47;;;;;;;10.05;6.95;;;;;;;4.31;100.00;99924.50;5012458;28;20038;-44
2021/12/27 07:07:15;;;;;;;12.15;7.38;;;;;;;4.31;100.00;99916.41;4319825;28;10000487;-50
2021/12/27 07:09:42;;;;;;;9.95;7.07;;;;;;;4.33;100.00;99914.25;5012198;28;20058;-47
2021/12/27 07:12:10;;;;;;;9.77;7.63;;;;;;;4.34;100.00;99915.91;5012228;28;20045;-49
2021/12/27 07:14:38;;;;;;;12.43;8.02;;;;;;;4.34;100.00;99908.63;5010557;28;21716;-49
2021/12/27 07:17:05;;;;;;;12.13;8.05;;;;;;;4.35;100.00;99912.13;5011869;28;20042;-50
2021/12/27 07:19:33;;;;;;;10.90;7.30;;;;;;;4.37;100.00;99926.16;5011997;28;20050;-48
2021/12/27 07:22:00;;;;;;;10.93;7.60;;;;;;;4.37;100.00;99915.38;4992909;28;20043;-48
2021/12/27 07:24:28;;;;;;;11.68;7.45;;;;;;;4.37;100.00;99910.81;4998442;28;20073;-48
2021/12/27 07:26:56;;;;;;;10.77;7.07;;;;;;;4.40;100.00;99909.50;4992128;28;20042;-44
2021/12/27 07:29:23;;;;;;;9.82;6.78;;;;;;;4.43;100.00;99909.00;4992379;28;20039;-46
2021/12/27 07:31:51;;;;;;;10.43;7.57;;;;;;;4.43;100.00;99907.13;4992271;28;20070;-48
2021/12/27 07:34:24;;;;;;;9.45;7.05;;;;;;;4.44;100.00;99895.25;4994065;28;20044;-50
2021/12/27 07:36:56;;;;;;;10.63;7.32;;;;;;;4.43;100.00;99901.72;4993044;28;20505;-48
2021/12/27 07:39:24;;;;;;;12.90;7.78;;;;;;;4.45;100.00;99893.41;4991971;28;20054;-51
2021/12/27 07:41:52;;;;;;;10.35;7.63;;;;;;;4.45;100.00;99896.09;4991850;28;20045;-48
2021/12/27 07:44:20;;;;;;;11.23;7.65;;;;;;;4.47;100.00;99893.94;4992037;28;20073;-47
2021/12/27 07:46:47;;;;;;;10.63;7.50;;;;;;;4.46;100.00;99897.72;4995996;28;20050;-48
2021/12/27 07:49:16;;;;;;;11.40;8.20;;;;;;;4.45;100.00;99896.09;4993263;28;20152;-49
2021/12/27 07:51:44;;;;;;;10.93;7.57;;;;;;;4.46;100.00;99892.31;4992112;28;20475;-45
2021/12/27 07:54:12;;;;;;;11.10;7.50;;;;;;;4.47;100.00;99893.94;5001771;28;20050;-44
2021/12/27 07:56:40;;;;;;;11.80;7.18;;;;;;;4.49;100.00;99891.81;5011619;28;20068;-48
2021/12/27 07:59:09;;;;;;;11.35;7.28;;;;;;;4.49;100.00;99894.50;4995372;28;20051;-48
2021/12/27 08:01:39;;;;;;;13.10;7.82;;;;;;;4.50;100.00;99898.84;4992069;28;20046;-47
2021/12/27 08:04:07;;;;;;;12.43;7.45;;;;;;;4.53;100.00;99900.22;5010826;28;20053;-49
2021/12/27 08:06:35;;;;;;;11.15;7.80;;;;;;;4.53;100.00;99890.25;5011240;28;20045;-45
2021/12/27 08:09:05;;;;;;;9.57;6.88;;;;;;;4.55;100.00;99890.81;5012754;28;20061;-48
2021/12/27 08:11:32;;;;;;;10.00;7.40;;;;;;;4.55;100.00;99893.50;5011666;28;20116;-48
2021/12/27 08:14:00;;;;;;;9.95;6.90;;;;;;;4.56;100.00;99892.44;5012887;28;20092;-47
2021/12/27 08:16:28;;;;;;;11.20;7.60;;;;;;;4.56;100.00;99895.13;5000171;28;20401;-46
2021/12/27 08:18:56;;;;;;;10.68;6.70;;;;;;;4.56;100.00;99903.22;5007843;28;20137;-44
2021/12/27 08:21:26;;;;;;;11.50;7.25;;;;;;;4.57;100.00;99904.88;4993197;28;20047;-47
2021/12/27 08:23:54;;;;;;;12.40;7.35;;;;;;;4.57;100.00;99904.03;4992886;28;20039;-47
2021/12/27 08:26:22;;;;;;;11.60;6.88;;;;;;;4.59;100.00;99907.31;4997541;28;20038;-47
2021/12/27 08:28:51;;;;;;;11.55;7.57;;;;;;;4.59;100.00;99908.13;5011636;28;20160;-48
2021/12/27 08:31:19;;;;;;;9.65;6.78;;;;;;;4.61;100.00;99915.97;5006462;28;20496;-49
2021/12/27 08:33:48;;;;;;;13.75;6.60;;;;;;;4.60;100.00;99909.75;5014759;28;20038;-50
2021/12/27 08:36:17;;;;;;;12.77;7.18;;;;;;;4.62;100.00;99912.22;5016175;28;20038;-51
2021/12/27 08:38:46;;;;;;;10.75;6.55;;;;;;;4.62;100.00;99907.63;5015519;28;20381;-47
2021/12/27 08:41:14;;;;;;;11.88;7.35;;;;;;;4.63;100.00;99898.47;5016674;28;20140;-47
2021/12/27 08:43:42;;;;;;;10.43;6.63;;;;;;;4.63;100.00;99898.47;5015052;28;20139;-43
2021/12/27 08:46:10;;;;;;;9.88;6.65;;;;;;;4.64;100.00;99905.50;5015441;28;20121;-48
2021/12/27 08:48:40;;;;;;;11.57;7.13;;;;;;;4.65;100.00;99907.13;5002656;28;20064;-48
2021/12/27 08:51:07;;;;;;;10.73;7.28;;;;;;;4.66;100.00;99913.31;4996586;28;20048;-50
2021/12/27 08:53:35;;;;;;;9.93;6.90;;;;;;;4.66;100.00;99907.94;4999792;28;20030;-48
2021/12/27 08:56:03;;;;;;;10.75;6.85;;;;;;;4.67;100.00;99910.38;5015878;28;20412;-46
2021/12/27 08:58:31;;;;;;;11.63;7.60;;;;;;;4.68;100.00;99912.00;5014971;28;20057;-48
2021/12/27 09:00:59;;;;;;;9.80;7.10;;;;;;;4.69;100.00;99902.88;5016012;28;20057;-47
2021/12/27 09:03:27;;;;;;;12.15;7.43;;;;;;;4.70;100.00;99892.88;5016054;28;20080;-48
2021/12/27 09:05:55;;;;;;;11.10;6.88;;;;;;;4.71;100.00;99894.50;5016028;28;20220;-43
2021/12/27 09:08:23;;;;;;;13.05;7.63;;;;;;;4.72;100.00;99887.25;4999144;28;20041;-48
2021/12/27 09:10:50;;;;;;;10.73;6.70;;;;;;;4.74;100.00;99885.06;4997152;28;20618;-50
2021/12/27 09:13:18;;;;;;;10.77;8.02;;;;;;;4.75;100.00;99878.63;5006400;28;20356;-44
2021/12/27 09:15:46;;;;;;;11.05;7.43;;;;;;;4.74;100.00;99868.88;5005255;28;20108;-49
2021/12/27 09:18:14;;;;;;;11.63;7.88;;;;;;;4.75;100.00;99867.84;5004197;28;20125;-51
2021/12/27 09:20:41;;;;;;;12.13;8.15;;;;;;;4.75;100.00;99852.47;5016182;28;20050;-50
2021/12/27 09:23:10;;;;;;;10.90;7.05;;;;;;;4.75;100.00;99855.16;4998386;28;20065;-49
2021/12/27 09:25:38;;;;;;;13.60;8.82;;;;;;;4.76;100.00;99864.06;5006870;28;20057;-48
2021/12/27 09:28:05;;;;;;;12.15;7.10;;;;;;;4.79;100.00;99855.47;5014160;28;20075;-47
2021/12/27 09:30:35;;;;;;;10.40;7.07;;;;;;;4.77;100.00;99861.13;5003399;28;20447;-47
2021/12/27 09:33:04;;;;;;;12.45;8.15;;;;;;;4.78;100.00;99868.13;5003147;28;20388;-47
2021/12/27 09:35:32;;;;;;;10.27;6.95;;;;;;;4.80;100.00;99870.59;5001342;28;20496;-47
2021/12/27 09:38:00;;;;;;;13.45;7.18;;;;;;;4.80;100.00;99871.41;5013984;28;20044;-47
2021/12/27 09:40:28;;;;;;;12.57;7.68;;;;;;;4.80;100.00;99881.38;5013754;28;20053;-47
2021/12/27 09:42:56;;;;;;;12.00;8.00;;;;;;;4.81;100.00;99894.63;5014475;28;20037;-48
2021/12/27 09:45:24;;;;;;;11.13;7.40;;;;;;;4.81;100.00;99894.63;4995021;28;20062;-46
2021/12/27 09:47:52;;;;;;;13.45;7.53;;;;;;;4.85;100.00;99886.84;4994345;28;20170;-43
2021/12/27 09:50:28;;;;;;;10.35;7.38;;;;;;;4.86;100.00;99891.19;5003341;28;20045;-47
2021/12/27 09:52:58;;;;;;;10.77;7.03;;;;;;;4.86;100.00;99883.91;5015176;28;20108;-47
2021/12/27 09:55:29;;;;;;;10.75;7.10;;;;;;;4.86;100.00;99869.59;5015066;28;20046;-46
2021/12/27 09:57:59;;;;;;;10.80;7.07;;;;;;;4.86;100.00;99866.91;5015263;28;20100;-46
2021/12/27 10:00:34;;;;;;;14.87;7.43;;;;;;;4.85;100.00;99866.06;5013711;28;20061;-46
2021/12/27 10:03:03;;;;;;;10.35;7.07;;;;;;;4.87;100.00;99868.50;5015246;28;20046;-47
2021/12/27 10:05:33;;;;;;;10.15;6.93;;;;;;;4.88;100.00;99862.03;5015205;28;20080;-46
2021/12/27 10:08:04;;;;;;;10.35;7.18;;;;;;;4.92;100.00;99852.38;5013505;28;20121;-46
2021/12/27 10:10:36;;;;;;;10.10;6.00;;;;;;;4.95;100.00;99857.25;5013320;28;20108;-46
2021/12/27 10:13:11;;;;;;;12.00;6.32;;;;;;;4.98;100.00;99856.75;5014966;28;20054;-47
2021/12/27 10:15:43;;;;;;;10.10;6.53;;;;;;;4.99;100.00;99852.16;5013711;28;20116;-45
2021/12/27 10:18:17;;;;;;;9.32;6.65;;;;;;;5.00;100.00;99838.41;5014168;28;20082;-48
2021/12/27 10:20:46;;;;;;;13.32;7.07;;;;;;;5.02;100.00;99835.44;4997413;28;20046;-46
2021/12/27 10:23:17;;;;;;;9.63;6.45;;;;;;;5.04;100.00;99834.13;5014341;28;20053;-48
2021/12/27 10:25:47;;;;;;;10.45;6.45;;;;;;;5.05;100.00;99829.53;5014582;28;20137;-47
2021/12/27 10:28:15;;;;;;;11.05;6.40;;;;;;;5.06;100.00;99810.38;5013443;28;20132;-46
2021/12/27 10:30:46;;;;;;;11.05;6.20;;;;;;;5.10;100.00;99798.00;5008828;28;20038;-47
2021/12/27 10:33:24;;;;;;;9.77;6.03;;;;;;;5.14;100.00;99801.00;4995831;28;20042;-53
2021/12/27 10:35:57;;;;;;;10.10;6.30;;;;;;;5.16;100.00;99789.94;5000388;28;20049;-50
2021/12/27 10:38:28;;;;;;;10.70;6.32;;;;;;;5.22;100.00;99791.59;5011620;28;20052;-50
2021/12/27 10:40:59;;;;;;;9.05;6.10;;;;;;;5.28;100.00;99801.38;5000005;28;20038;-48
2021/12/27 10:43:46;;;;;;;9.27;6.15;;;;;;;5.25;100.00;99799.22;4994644;28;20061;-48
2021/12/27 10:46:34;;;;;;;8.32;5.82;;;;;;;5.22;100.00;99797.84;4994778;28;20050;-46
2021/12/27 10:49:02;;;;;;;8.40;5.85;;;;;;;5.20;100.00;99808.09;4995496;28;20395;-47
2021/12/27 10:51:30;;;;;;;11.43;5.93;;;;;;;5.19;100.00;99813.72;4994604;28;20048;-50
2021/12/27 10:54:01;;;;;;;9.30;6.03;;;;;;;5.18;100.00;99817.50;4994472;28;20038;-48
2021/12/27 10:56:50;;;;;;;10.68;6.22;;;;;;;5.18;100.00;99823.72;4992953;28;20058;-46
2021/12/27 10:59:18;;;;;;;10.77;6.95;;;;;;;5.18;100.00;99812.13;4994800;28;20057;-47
2021/12/27 11:01:50;;;;;;;10.05;6.00;;;;;;;5.21;100.00;99811.59;5009536;28;20042;-49
2021/12/27 11:04:19;;;;;;;11.20;6.75;;;;;;;5.22;100.00;99808.66;4994441;28;20070;-48
2021/12/27 11:06:49;;;;;;;10.52;6.90;;;;;;;5.23;100.00;99801.34;4993090;28;20039;-44
2021/12/27 11:09:17;;;;;;;11.80;7.20;;;;;;;5.24;100.00;99800.28;5005947;28;20508;-47
2021/12/27 11:11:46;;;;;;;10.70;6.78;;;;;;;5.25;100.00;99799.22;5011362;28;20071;-47
2021/12/27 11:14:14;;;;;;;10.68;6.95;;;;;;;5.26;100.00;99800.81;5013888;28;20045;-47
2021/12/27 11:16:43;;;;;;;12.52;7.25;;;;;;;5.28;100.00;99801.38;5009842;28;20424;-47
2021/12/27 11:19:10;;;;;;;10.32;6.80;;;;;;;5.30;100.00;99807.34;4994073;28;20524;-47
2021/12/27 11:21:42;;;;;;;9.15;6.35;;;;;;;5.30;100.00;99800.06;5000019;28;20041;-45
2021/12/27 11:24:11;;;;;;;12.18;7.03;;;;;;;5.33;100.00;99801.44;5013357;28;20108;-48
2021/12/27 11:26:40;;;;;;;10.50;6.93;;;;;;;5.36;100.00;99792.78;5012244;28;20050;-45
2021/12/27 11:29:22;;;;;;;10.07;6.72;;;;;;;5.40;100.00;99787.72;4994436;28;20045;-48
2021/12/27 11:31:52;;;;;;;11.98;7.32;;;;;;;5.41;100.00;99787.47;4994795;28;20048;-47